Time;durP1;ratioP1;P1;durP2;ratioP2;P2;SDS_P1;SDS_P2;PMS_P1;PMS_P2;Temp;Humidity;BMP_temperature;BMP_pressure;BME280_temperature;BME280_humidity;BME280_pressure;Samples;Min_cycle;Max_cycle;Signal;HPM_P1;HPM_P2
2023/07/06 00:01:03;;;;;;;7.10;1.95;;;;;;;11.60;100.00;100500.13;6254310;22;20006;-94
2023/07/06 00:03:32;;;;;;;8.63;1.15;;;;;;;11.73;100.00;100493.31;6254128;22;20486;-94
2023/07/06 00:05:58;;;;;;;6.28;1.45;;;;;;;11.67;100.00;100501.41;6151061;23;20486;-95
2023/07/06 00:08:23;;;;;;;4.95;1.13;;;;;;;11.62;100.00;100498.28;6151019;22;20006;-94
2023/07/06 00:10:49;;;;;;;2.70;0.85;;;;;;;11.42;100.00;100497.72;6254030;22;20009;-95
2023/07/06 00:13:15;;;;;;;3.38;1.10;;;;;;;11.58;100.00;100492.44;6254001;22;20001;-93
2023/07/06 00:15:42;;;;;;;5.22;1.15;;;;;;;11.65;100.00;100498.91;6254099;22;20092;-94
2023/07/06 00:18:08;;;;;;;3.95;1.08;;;;;;;11.60;100.00;100495.78;6254670;22;20020;-93
2023/07/06 00:20:38;;;;;;;2.20;0.95;;;;;;;11.74;100.00;100502.69;6150887;22;20089;-94
2023/07/06 00:23:08;;;;;;;8.63;1.40;;;;;;;12.07;100.00;100498.97;6254431;22;20002;-94
2023/07/06 00:25:41;;;;;;;2.30;1.13;;;;;;;12.07;100.00;100493.81;6253931;22;20005;-94
2023/07/06 00:28:10;;;;;;;7.75;1.45;;;;;;;12.09;100.00;100494.53;6254376;22;20032;-95
2023/07/06 00:30:53;;;;;;;7.47;1.40;;;;;;;12.10;100.00;100498.81;6253965;22;20005;-95
2023/07/06 00:33:20;;;;;;;2.75;1.20;;;;;;;12.16;100.00;100498.41;6254102;22;20006;-94
2023/07/06 00:35:46;;;;;;;7.75;1.20;;;;;;;12.19;100.00;100495.63;6150968;23;20088;-94
2023/07/06 00:38:15;;;;;;;3.67;1.15;;;;;;;12.26;100.00;100494.31;6253839;22;20009;-94
2023/07/06 00:40:50;;;;;;;4.47;1.23;;;;;;;12.26;100.00;100494.31;6254295;22;20016;-94
2023/07/06 00:43:21;;;;;;;4.38;1.20;;;;;;;12.22;100.00;100485.09;6254089;22;20013;-94
2023/07/06 00:45:50;;;;;;;6.35;1.30;;;;;;;12.28;100.00;100487.28;6253963;22;20039;-94
2023/07/06 00:48:20;;;;;;;4.85;1.17;;;;;;;12.30;100.00;100489.78;6253713;22;20013;-95
2023/07/06 00:50:54;;;;;;;4.90;1.55;;;;;;;12.38;100.00;100485.75;6253879;22;20029;-93
2023/07/06 00:53:22;;;;;;;4.22;1.40;;;;;;;12.42;100.00;100488.97;6254033;22;20037;-93
2023/07/06 00:55:47;;;;;;;3.13;1.50;;;;;;;12.47;100.00;100491.28;6253762;22;20008;-93
2023/07/06 00:58:22;;;;;;;4.50;0.90;;;;;;;12.51;100.00;100483.22;6253599;22;20345;-93
2023/07/06 01:00:52;;;;;;;6.18;1.20;;;;;;;12.53;100.00;100488.28;6253615;22;20088;-94
2023/07/06 01:03:19;;;;;;;5.57;1.17;;;;;;;12.61;100.00;100486.03;6151244;23;20413;-96
2023/07/06 01:05:47;;;;;;;5.47;1.25;;;;;;;12.57;100.00;100484.56;6253825;22;20039;-94
2023/07/06 01:08:18;;;;;;;4.28;1.60;;;;;;;12.53;100.00;100490.88;6253618;22;20010;-94
2023/07/06 01:10:45;;;;;;;5.85;1.33;;;;;;;12.56;100.00;100485.53;6253448;22;20006;-94
2023/07/06 01:13:10;;;;;;;5.88;1.40;;;;;;;12.59;100.00;100485.31;6253624;22;20005;-93
2023/07/06 01:15:45;;;;;;;6.45;1.20;;;;;;;12.58;100.00;100484.50;6253650;22;20025;-94
2023/07/06 01:18:33;;;;;;;5.00;1.40;;;;;;;12.56;100.00;100478.56;6150636;23;20073;-94
2023/07/06 01:21:45;;;;;;;4.57;1.77;;;;;;;12.61;100.00;100473.91;6241725;22;20445;-92
2023/07/06 01:24:25;;;;;;;4.30;1.95;;;;;;;12.59;100.00;100478.38;6251826;22;20313;-93
2023/07/06 01:27:14;;;;;;;3.08;1.13;;;;;;;12.60;100.00;100481.78;6253162;22;20009;-93
2023/07/06 01:30:08;;;;;;;4.30;1.20;;;;;;;12.65;100.00;100479.72;6211644;22;20059;-94
2023/07/06 01:32:39;;;;;;;3.95;1.17;;;;;;;12.64;100.00;100483.25;6254010;22;20093;-94
2023/07/06 01:35:17;;;;;;;4.63;1.60;;;;;;;12.63;100.00;100479.84;6253626;22;20006;-92
2023/07/06 01:37:44;;;;;;;9.02;1.50;;;;;;;12.65;100.00;100474.53;6253895;22;20009;-92
2023/07/06 01:40:10;;;;;;;9.93;1.38;;;;;;;12.61;100.00;100473.09;6253498;22;20025;-93
2023/07/06 01:42:40;;;;;;;5.35;1.35;;;;;;;12.59;100.00;100469.78;6253646;22;20051;-95
2023/07/06 01:45:16;;;;;;;3.45;1.30;;;;;;;12.58;100.00;100473.28;6150905;23;20432;-94
2023/07/06 01:48:05;;;;;;;7.00;1.40;;;;;;;12.59;100.00;100465.41;6150648;23;20012;-95
2023/07/06 01:50:48;;;;;;;2.85;1.25;;;;;;;12.59;100.00;100472.38;6253122;22;20440;-93
2023/07/06 01:53:17;;;;;;;4.93;1.35;;;;;;;12.67;100.00;100467.50;6253563;22;20016;-92
2023/07/06 01:55:52;;;;;;;12.30;1.45;;;;;;;12.61;100.00;100465.34;6253448;22;20010;-94
2023/07/06 01:58:26;;;;;;;7.00;1.85;;;;;;;12.54;100.00;100462.31;6253941;22;20010;-94
2023/07/06 02:01:02;;;;;;;5.75;1.42;;;;;;;12.58;100.00;100468.09;6253184;22;20056;-94
2023/07/06 02:03:29;;;;;;;4.78;1.17;;;;;;;12.53;100.00;100465.81;6253341;22;20485;-95
2023/07/06 02:05:55;;;;;;;4.03;1.50;;;;;;;12.54;100.00;100466.66;6150673;23;20005;-92
2023/07/06 02:08:23;;;;;;;3.53;1.45;;;;;;;12.52;100.00;100463.34;6253185;22;20340;-93
2023/07/06 02:10:48;;;;;;;3.00;1.10;;;;;;;12.57;100.00;100466.44;6253502;22;20513;-95
2023/07/06 02:13:16;;;;;;;3.58;1.50;;;;;;;12.53;100.00;100454.63;6253339;22;20152;-92
2023/07/06 02:15:42;;;;;;;4.10;1.52;;;;;;;12.53;100.00;100454.63;6253659;22;20036;-94
2023/07/06 02:18:07;;;;;;;2.92;1.40;;;;;;;12.53;100.00;100454.63;6253151;22;19994;-94
2023/07/06 02:20:34;;;;;;;6.32;1.35;;;;;;;12.50;100.00;100450.47;6150685;22;20005;-93
2023/07/06 02:23:00;;;;;;;3.95;1.20;;;;;;;12.51;100.00;100451.31;6253196;22;20043;-94
2023/07/06 02:25:25;;;;;;;4.85;1.38;;;;;;;12.58;100.00;100443.06;6252972;22;20036;-93
2023/07/06 02:27:51;;;;;;;6.72;1.70;;;;;;;12.59;100.00;100454.25;6253385;22;20077;-94
2023/07/06 02:30:16;;;;;;;4.25;1.75;;;;;;;12.56;100.00;100459.63;6150340;22;20542;-94
2023/07/06 02:32:41;;;;;;;8.85;1.55;;;;;;;12.57;100.00;100445.75;6253058;22;20006;-95
2023/07/06 02:35:09;;;;;;;5.35;1.33;;;;;;;12.51;100.00;100446.97;6253191;22;20001;-94
2023/07/06 02:37:38;;;;;;;7.80;1.50;;;;;;;12.56;100.00;100444.09;6252916;22;20088;-95
2023/07/06 02:40:10;;;;;;;5.82;1.38;;;;;;;12.50;100.00;100445.31;6253365;22;20010;-93
2023/07/06 02:42:42;;;;;;;6.32;1.60;;;;;;;12.55;100.00;100447.59;6253135;22;20385;-94
2023/07/06 02:45:09;;;;;;;5.50;2.00;;;;;;;12.49;100.00;100437.66;6253358;22;20348;-94
2023/07/06 02:47:36;;;;;;;8.23;2.03;;;;;;;12.42;100.00;100442.41;6253165;22;20002;-94
2023/07/06 02:50:03;;;;;;;3.78;1.30;;;;;;;12.49;100.00;100440.25;6252595;22;20451;-94
2023/07/06 02:52:28;;;;;;;4.93;1.55;;;;;;;12.50;100.00;100440.13;6150108;23;19998;-94
2023/07/06 02:54:53;;;;;;;3.30;1.67;;;;;;;12.50;100.00;100449.66;6253062;22;20013;-93
2023/07/06 02:57:20;;;;;;;5.38;1.15;;;;;;;12.50;100.00;100445.31;6252975;22;20013;-94
2023/07/06 02:59:45;;;;;;;4.32;1.83;;;;;;;12.51;100.00;100434.03;6150057;22;20028;-96
2023/07/06 03:02:12;;;;;;;6.75;1.67;;;;;;;12.50;100.00;100439.31;6253037;22;20313;-93
2023/07/06 03:04:37;;;;;;;4.07;1.02;;;;;;;12.51;100.00;100440.94;6253307;22;20025;-95
2023/07/06 03:07:02;;;;;;;5.78;1.90;;;;;;;12.56;100.00;100444.09;6252779;22;20441;-94
2023/07/06 03:09:28;;;;;;;5.95;1.55;;;;;;;12.54;100.00;100440.78;6253123;22;20017;-94
2023/07/06 03:11:53;;;;;;;3.42;1.75;;;;;;;12.51;100.00;100440.94;6252675;22;20028;-93
2023/07/06 03:14:24;;;;;;;3.38;1.27;;;;;;;12.61;100.00;100442.03;6252724;22;20421;-94
2023/07/06 03:16:53;;;;;;;4.60;1.67;;;;;;;12.81;100.00;100444.13;6253553;22;20051;-94
2023/07/06 03:19:18;;;;;;;7.57;2.30;;;;;;;12.72;100.00;100449.06;6252894;22;20019;-94
2023/07/06 03:21:44;;;;;;;8.80;1.90;;;;;;;12.71;100.00;100450.84;6150070;23;20324;-94
2023/07/06 03:24:10;;;;;;;3.28;1.50;;;;;;;12.61;100.00;100442.84;6150175;23;19994;-93
2023/07/06 03:26:36;;;;;;;5.68;1.52;;;;;;;12.55;100.00;100432.06;6252523;22;20009;-94
2023/07/06 03:29:04;;;;;;;12.60;2.72;;;;;;;12.53;100.00;100433.91;6149881;23;20055;-94
2023/07/06 03:31:32;;;;;;;9.10;2.78;;;;;;;12.50;100.00;100434.94;6149831;22;20041;-93
2023/07/06 03:33:58;;;;;;;7.00;2.30;;;;;;;12.31;100.00;100443.06;6252956;22;20017;-94
2023/07/06 03:36:23;;;;;;;4.45;1.30;;;;;;;12.27;100.00;100436.44;6252833;22;20013;-95
2023/07/06 03:38:50;;;;;;;4.15;1.45;;;;;;;12.23;100.00;100440.16;6252844;22;20002;-94
2023/07/06 03:41:17;;;;;;;10.50;2.13;;;;;;;12.30;100.00;100438.84;6252256;22;20010;-94
2023/07/06 03:43:43;;;;;;;4.07;1.63;;;;;;;12.34;100.00;100435.13;6253050;22;20006;-94
2023/07/06 03:46:09;;;;;;;4.43;1.60;;;;;;;12.36;100.00;100438.44;6149865;23;20166;-94
2023/07/06 03:48:35;;;;;;;8.88;3.10;;;;;;;12.43;100.00;100436.28;6252892;22;20032;-95
2023/07/06 03:51:03;;;;;;;5.95;2.15;;;;;;;12.39;100.00;100438.25;6255095;22;19998;-95
2023/07/06 03:53:30;;;;;;;4.75;1.50;;;;;;;12.40;100.00;100437.31;6254744;22;20088;-93
2023/07/06 03:55:55;;;;;;;5.63;1.60;;;;;;;12.39;100.00;100438.25;6254583;22;20009;-93
2023/07/06 03:58:21;;;;;;;4.82;1.77;;;;;;;12.48;100.00;100441.16;6151071;23;20016;-95
2023/07/06 04:00:47;;;;;;;7.00;1.60;;;;;;;12.46;100.00;100440.41;6254261;22;20009;-94
2023/07/06 04:03:13;;;;;;;8.25;2.03;;;;;;;12.42;100.00;100439.81;6151282;23;20041;-95
2023/07/06 04:05:44;;;;;;;4.30;1.50;;;;;;;12.46;100.00;100441.28;6254339;22;20005;-94
2023/07/06 04:08:13;;;;;;;3.30;1.50;;;;;;;12.33;100.00;100445.56;6254033;22;20012;-94
2023/07/06 04:10:40;;;;;;;9.18;2.17;;;;;;;12.30;100.00;100448.38;6254146;22;20329;-94
2023/07/06 04:13:08;;;;;;;6.32;1.90;;;;;;;12.35;100.00;100447.13;6150988;23;20041;-94
2023/07/06 04:15:34;;;;;;;3.78;1.70;;;;;;;12.32;100.00;100444.75;6253952;22;20078;-95
2023/07/06 04:18:01;;;;;;;5.45;1.40;;;;;;;12.30;100.00;100456.94;6254416;22;20081;-95
2023/07/06 04:20:28;;;;;;;3.95;1.35;;;;;;;12.39;100.00;100458.94;6254244;22;20062;-94
2023/07/06 04:22:55;;;;;;;3.53;1.10;;;;;;;12.34;100.00;100466.19;6151069;23;20012;-94
2023/07/06 04:25:26;;;;;;;8.45;1.92;;;;;;;12.34;100.00;100460.19;6254094;22;20013;-94
2023/07/06 04:27:52;;;;;;;7.45;1.60;;;;;;;12.40;100.00;100459.78;6150984;23;20014;-94
2023/07/06 04:30:18;;;;;;;4.95;1.98;;;;;;;12.41;100.00;100462.28;6150674;22;20058;-94
2023/07/06 04:32:50;;;;;;;10.35;1.95;;;;;;;12.46;100.00;100468.91;6253963;22;20006;-95
2023/07/06 04:35:22;;;;;;;6.32;2.05;;;;;;;12.49;100.00;100458.38;6254036;22;20162;-96
2023/07/06 04:37:48;;;;;;;2.90;1.63;;;;;;;12.74;100.00;100468.75;6254031;22;20016;-94
2023/07/06 04:40:18;;;;;;;5.22;1.85;;;;;;;12.66;100.00;100470.22;6254133;22;20005;-94
2023/07/06 04:42:46;;;;;;;7.53;1.88;;;;;;;12.75;100.00;100470.44;6254196;22;20075;-94
2023/07/06 04:45:12;;;;;;;7.15;2.13;;;;;;;12.73;100.00;100467.13;6254105;22;20009;-95
2023/07/06 04:47:39;;;;;;;9.63;1.70;;;;;;;12.90;100.00;100459.97;6253239;22;20078;-93
2023/07/06 04:50:10;;;;;;;8.63;2.50;;;;;;;12.77;100.00;100458.19;6254249;22;20439;-95
2023/07/06 04:52:37;;;;;;;5.35;2.10;;;;;;;12.77;100.00;100458.19;6254048;22;20050;-93
2023/07/06 04:55:06;;;;;;;4.13;1.45;;;;;;;12.76;100.00;100459.13;6254059;22;20001;-94
2023/07/06 04:57:32;;;;;;;5.10;1.77;;;;;;;12.74;100.00;100452.41;6150682;23;20002;-95
2023/07/06 04:59:59;;;;;;;6.53;1.75;;;;;;;12.74;100.00;100445.44;6252910;22;20336;-94
2023/07/06 05:02:27;;;;;;;3.33;1.70;;;;;;;12.71;100.00;100453.44;6253746;22;20089;-93
2023/07/06 05:04:52;;;;;;;5.72;1.83;;;;;;;12.74;100.00;100458.41;6253810;22;20081;-93
2023/07/06 05:07:18;;;;;;;3.35;1.90;;;;;;;12.76;100.00;100456.53;6253663;22;20033;-95
2023/07/06 05:09:44;;;;;;;4.75;1.88;;;;;;;12.80;100.00;100450.25;6253911;22;20005;-95
2023/07/06 05:12:10;;;;;;;6.80;2.50;;;;;;;12.83;100.00;100450.03;6253335;22;20515;-94
2023/07/06 05:14:36;;;;;;;5.45;2.58;;;;;;;12.92;100.00;100447.75;6253886;22;20020;-95
2023/07/06 05:17:01;;;;;;;3.63;1.52;;;;;;;12.95;100.00;100444.94;6253385;22;20009;-94
2023/07/06 05:19:27;;;;;;;5.40;1.70;;;;;;;12.98;100.00;100445.56;6253517;22;20033;-95
2023/07/06 05:21:55;;;;;;;6.75;1.58;;;;;;;13.08;100.00;100456.16;6253710;22;20028;-94
2023/07/06 05:24:21;;;;;;;5.43;1.80;;;;;;;13.12;100.00;100447.25;6253887;22;20010;-95
2023/07/06 05:26:47;;;;;;;6.68;1.92;;;;;;;13.18;100.00;100456.34;6253594;22;20436;-94
2023/07/06 05:29:12;;;;;;;6.65;1.88;;;;;;;13.26;100.00;100454.06;6254139;22;20005;-93
2023/07/06 05:31:38;;;;;;;6.05;2.90;;;;;;;13.36;100.00;100449.94;6253135;22;20306;-94
2023/07/06 05:34:03;;;;;;;4.72;1.65;;;;;;;13.38;100.00;100447.25;6150869;23;20088;-94
2023/07/06 05:36:28;;;;;;;6.53;2.00;;;;;;;13.38;100.00;100449.84;6253631;22;20092;-94
2023/07/06 05:38:54;;;;;;;7.22;1.80;;;;;;;13.45;100.00;100451.88;6151017;23;20009;-94
2023/07/06 05:41:19;;;;;;;5.60;1.60;;;;;;;13.53;100.00;100464.31;6253553;22;20451;-94
2023/07/06 05:43:44;;;;;;;4.15;1.80;;;;;;;13.48;100.00;100467.25;6253673;22;20005;-94
2023/07/06 05:46:10;;;;;;;5.57;1.95;;;;;;;13.47;100.00;100462.16;6150865;23;20089;-95
2023/07/06 05:48:35;;;;;;;4.85;1.25;;;;;;;13.56;100.00;100458.94;6253488;22;20008;-93
2023/07/06 05:51:00;;;;;;;6.40;1.95;;;;;;;13.76;100.00;100467.09;6150469;22;19998;-94
2023/07/06 05:53:27;;;;;;;8.50;2.22;;;;;;;13.91;98.98;100460.81;6253229;22;20017;-95
2023/07/06 05:55:52;;;;;;;6.53;1.90;;;;;;;14.13;96.86;100467.91;6253431;22;20009;-94
2023/07/06 05:58:18;;;;;;;9.45;2.25;;;;;;;14.22;93.15;100463.81;6253742;22;20010;-93
2023/07/06 06:00:43;;;;;;;6.10;1.80;;;;;;;14.53;91.60;100472.78;6253174;22;20092;-94
2023/07/06 06:03:09;;;;;;;7.57;1.70;;;;;;;14.69;90.66;100467.31;6253056;22;20005;-94
2023/07/06 06:05:35;;;;;;;8.13;2.10;;;;;;;14.69;88.62;100472.50;6253335;22;20310;-93
2023/07/06 06:08:02;;;;;;;7.13;1.60;;;;;;;14.72;86.71;100467.09;6253862;22;20006;-95
2023/07/06 06:10:28;;;;;;;5.97;1.88;;;;;;;14.49;88.10;100460.97;6253791;22;20002;-94
2023/07/06 06:12:54;;;;;;;6.15;1.65;;;;;;;14.54;88.30;100467.50;6254265;22;20041;-94
2023/07/06 06:15:20;;;;;;;10.00;2.70;;;;;;;14.36;88.69;100476.59;6253504;22;20005;-94
2023/07/06 06:17:47;;;;;;;6.22;2.45;;;;;;;14.39;89.15;100471.22;6254085;22;20488;-95
2023/07/06 06:20:13;;;;;;;4.50;1.50;;;;;;;14.35;88.50;100469.75;6253693;22;20009;-94
2023/07/06 06:22:40;;;;;;;4.72;1.63;;;;;;;14.49;87.87;100472.19;6150662;23;20001;-95
2023/07/06 06:25:06;;;;;;;7.55;2.33;;;;;;;14.62;87.32;100472.13;6253769;22;20078;-94
2023/07/06 06:27:32;;;;;;;7.22;1.65;;;;;;;14.75;86.67;100472.91;6253379;22;20444;-94
2023/07/06 06:29:58;;;;;;;6.72;2.20;;;;;;;14.77;86.34;100478.78;6253431;22;20044;-94
2023/07/06 06:32:25;;;;;;;5.75;1.80;;;;;;;14.76;86.99;100484.13;6150782;23;20606;-94
2023/07/06 06:34:50;;;;;;;4.80;1.73;;;;;;;14.92;86.02;100489.84;6253545;22;20009;-94
2023/07/06 06:37:16;;;;;;;5.28;1.58;;;;;;;15.05;84.89;100488.91;6150423;23;20024;-94
2023/07/06 06:39:43;;;;;;;5.50;2.08;;;;;;;15.12;85.15;100500.50;6150175;22;20006;-93
2023/07/06 06:42:09;;;;;;;3.97;1.70;;;;;;;15.26;83.67;100492.47;6150295;23;20059;-94
2023/07/06 06:44:35;;;;;;;7.13;1.88;;;;;;;15.22;83.43;100496.25;6253196;22;20362;-94
2023/07/06 06:47:04;;;;;;;5.10;1.80;;;;;;;15.32;83.84;100499.81;6253141;22;20112;-94
2023/07/06 06:49:29;;;;;;;7.53;1.58;;;;;;;15.43;83.05;100500.75;6253385;22;20013;-94
2023/07/06 06:51:55;;;;;;;6.80;2.00;;;;;;;15.43;80.47;100493.78;6252727;22;20002;-94
2023/07/06 06:54:20;;;;;;;9.63;1.75;;;;;;;15.30;80.96;100499.09;6253726;22;20091;-93
2023/07/06 06:56:46;;;;;;;7.38;1.48;;;;;;;15.43;81.28;100503.34;6253154;22;20009;-92
2023/07/06 06:59:12;;;;;;;5.22;1.50;;;;;;;15.48;80.99;100506.44;6252972;22;20013;-95
2023/07/06 07:01:38;;;;;;;3.42;1.73;;;;;;;15.57;80.49;100500.53;6253032;22;20005;-94
2023/07/06 07:04:04;;;;;;;4.05;1.42;;;;;;;15.62;80.73;100498.38;6253355;22;20033;-94
2023/07/06 07:06:30;;;;;;;4.63;1.55;;;;;;;15.60;78.10;100501.09;6253184;22;20001;-94
2023/07/06 07:08:57;;;;;;;3.90;1.60;;;;;;;15.69;78.34;100494.34;6150250;22;20080;-94
2023/07/06 07:11:23;;;;;;;8.02;1.83;;;;;;;15.62;79.37;100498.38;6253796;22;20005;-93
2023/07/06 07:13:53;;;;;;;4.97;2.00;;;;;;;15.81;79.33;100498.63;6252887;22;19998;-95
2023/07/06 07:16:19;;;;;;;8.43;1.55;;;;;;;15.96;77.25;100495.78;6253595;22;20032;-94
2023/07/06 07:18:45;;;;;;;8.15;1.55;;;;;;;15.77;77.55;100492.00;6150277;23;20005;-94
2023/07/06 07:21:12;;;;;;;4.95;2.13;;;;;;;15.98;76.84;100499.09;6252744;22;20329;-94
2023/07/06 07:23:48;;;;;;;10.23;1.98;;;;;;;15.89;76.12;100498.03;6253439;22;20084;-95
2023/07/06 07:26:20;;;;;;;9.35;2.17;;;;;;;15.87;76.18;100496.50;6254973;22;20304;-93
2023/07/06 07:28:51;;;;;;;7.72;2.00;;;;;;;16.29;74.77;100491.41;6254610;22;20390;-93
2023/07/06 07:31:19;;;;;;;7.57;1.60;;;;;;;16.54;73.77;100498.91;6255502;22;20005;-92
2023/07/06 07:33:49;;;;;;;4.13;1.58;;;;;;;16.78;73.12;100493.50;6151700;22;20002;-94
2023/07/06 07:36:17;;;;;;;7.60;2.17;;;;;;;16.68;72.25;100493.41;6254414;22;20009;-93
2023/07/06 07:38:44;;;;;;;3.53;1.40;;;;;;;16.29;70.77;100492.25;6151529;23;20069;-95
2023/07/06 07:41:09;;;;;;;5.55;1.80;;;;;;;16.39;71.99;100492.34;6151473;22;20032;-94
2023/07/06 07:43:41;;;;;;;6.45;1.75;;;;;;;16.47;71.71;100490.75;6254385;22;20006;-95
2023/07/06 07:46:10;;;;;;;6.93;1.90;;;;;;;16.65;70.02;100498.88;6254196;22;20012;-94
2023/07/06 07:48:38;;;;;;;7.95;1.52;;;;;;;16.88;69.03;100496.16;6254443;22;20571;-94
2023/07/06 07:51:07;;;;;;;6.18;1.95;;;;;;;17.24;67.06;100499.25;6254786;22;20056;-95
2023/07/06 07:53:35;;;;;;;8.32;1.60;;;;;;;19.13;59.50;100496.50;6254906;22;20028;-93
2023/07/06 07:56:01;;;;;;;6.70;1.70;;;;;;;20.63;56.12;100497.06;6254138;22;20016;-95
2023/07/06 07:58:27;;;;;;;4.22;1.50;;;;;;;21.50;53.19;100505.00;6254379;22;20487;-95
2023/07/06 08:00:57;;;;;;;4.90;1.50;;;;;;;21.84;52.82;100502.31;6254830;22;20202;-95
2023/07/06 08:03:24;;;;;;;5.82;1.50;;;;;;;22.05;51.28;100501.88;6255274;22;20012;-96
2023/07/06 08:05:59;;;;;;;3.10;1.05;;;;;;;22.84;49.79;100510.16;6254460;22;20002;-95
2023/07/06 08:08:25;;;;;;;7.13;1.25;;;;;;;22.84;47.62;100508.34;6254436;22;20006;-95
2023/07/06 08:10:55;;;;;;;3.40;1.25;;;;;;;22.82;47.96;100506.88;6254672;22;20024;-96
2023/07/06 08:13:21;;;;;;;6.57;1.50;;;;;;;22.55;48.07;100514.13;6254904;22;20008;-96
2023/07/06 08:15:49;;;;;;;4.30;1.20;;;;;;;22.83;44.96;100513.81;6254630;22;20006;-96
2023/07/06 08:18:15;;;;;;;6.65;1.88;;;;;;;22.58;46.47;100507.72;6254769;22;20009;-96
2023/07/06 08:20:43;;;;;;;3.70;1.25;;;;;;;22.77;46.18;100509.19;6255137;22;20010;-96
2023/07/06 08:23:11;;;;;;;3.60;1.00;;;;;;;23.23;44.52;100514.72;6255421;22;20032;-96
2023/07/06 08:25:40;;;;;;;5.45;1.27;;;;;;;22.57;46.56;100509.53;6255033;22;20440;-96
2023/07/06 08:28:10;;;;;;;2.80;1.08;;;;;;;22.18;47.62;100507.50;6255094;22;20002;-95
2023/07/06 08:30:37;;;;;;;8.48;1.40;;;;;;;20.83;50.57;100508.19;6255227;22;20088;-96
2023/07/06 08:33:04;;;;;;;6.40;1.05;;;;;;;21.43;48.77;100509.22;6254901;22;20011;-96
2023/07/06 08:35:30;;;;;;;9.60;1.35;;;;;;;22.06;46.77;100495.63;6152198;23;20080;-95
2023/07/06 08:37:57;;;;;;;3.08;1.00;;;;;;;22.01;47.40;100503.19;6255985;22;20436;-96
2023/07/06 08:40:27;;;;;;;3.58;0.90;;;;;;;22.78;46.18;100500.31;6255039;22;20248;-96
2023/07/06 08:42:55;;;;;;;5.65;1.27;;;;;;;23.07;45.28;100505.91;6151969;23;20002;-96
2023/07/06 08:45:23;;;;;;;3.75;1.25;;;;;;;23.79;44.49;100505.00;6254727;22;20033;-96
2023/07/06 08:47:51;;;;;;;7.15;1.80;;;;;;;23.83;44.65;100508.94;6254852;22;20005;-96
2023/07/06 08:50:27;;;;;;;2.80;0.90;;;;;;;23.98;43.45;100497.66;6254765;22;20012;-95
2023/07/06 08:52:53;;;;;;;8.95;1.70;;;;;;;23.74;44.20;100503.88;6254824;22;20025;-96
2023/07/06 08:55:19;;;;;;;6.95;1.38;;;;;;;23.68;44.00;100498.28;6151742;23;20051;-96
2023/07/06 08:57:46;;;;;;;4.95;1.40;;;;;;;23.77;45.29;100496.44;6254970;22;20005;-95
2023/07/06 09:00:27;;;;;;;5.53;1.20;;;;;;;23.61;43.73;100494.69;6254437;22;20414;-96
2023/07/06 09:02:55;;;;;;;2.05;1.05;;;;;;;24.38;43.30;100498.34;6254197;22;20009;-96
2023/07/06 09:05:21;;;;;;;8.70;1.88;;;;;;;24.86;42.79;100491.03;6151327;23;20014;-96
2023/07/06 09:07:48;;;;;;;5.93;1.17;;;;;;;25.33;42.34;100484.63;6254186;22;20002;-96
2023/07/06 09:10:25;;;;;;;5.10;1.13;;;;;;;24.89;43.38;100480.13;6255189;22;20005;-96
2023/07/06 09:12:53;;;;;;;3.40;1.27;;;;;;;25.21;41.44;100484.25;6254828;22;20010;-95
2023/07/06 09:15:28;;;;;;;4.60;1.40;;;;;;;23.88;41.90;100495.25;6254326;22;20039;-95
2023/07/06 09:17:59;;;;;;;3.40;1.50;;;;;;;24.89;41.38;100478.28;6254436;22;20433;-96
2023/07/06 09:20:26;;;;;;;5.82;2.05;;;;;;;24.17;41.11;100491.09;6254570;22;20012;-96
2023/07/06 09:22:51;;;;;;;3.70;1.50;;;;;;;23.77;41.51;100480.63;6254256;22;20010;-95
2023/07/06 09:25:21;;;;;;;3.83;1.63;;;;;;;24.44;40.63;100477.38;6253848;22;20005;-95
2023/07/06 09:27:49;;;;;;;5.97;1.65;;;;;;;24.40;39.64;100476.06;6254059;22;20016;-96
2023/07/06 09:30:32;;;;;;;5.13;1.45;;;;;;;24.81;39.55;100485.50;6254218;22;20002;-95
2023/07/06 09:33:05;;;;;;;4.68;1.70;;;;;;;23.41;41.53;100486.38;6254357;22;20012;-95
2023/07/06 09:35:35;;;;;;;6.38;1.67;;;;;;;24.12;41.43;100481.09;6253861;22;20444;-95
2023/07/06 09:38:02;;;;;;;5.32;1.67;;;;;;;24.24;41.10;100479.69;6151242;23;20032;-95
2023/07/06 09:40:29;;;;;;;5.60;1.40;;;;;;;24.66;40.74;100475.72;6254493;22;20010;-94
2023/07/06 09:42:54;;;;;;;3.95;1.38;;;;;;;24.37;42.13;100476.44;6253628;22;20016;-95
2023/07/06 09:45:26;;;;;;;3.30;1.20;;;;;;;24.59;41.36;100488.00;6253597;22;20446;-96
2023/07/06 09:48:04;;;;;;;2.65;1.35;;;;;;;24.06;41.19;100492.31;6253622;22;20340;-95
2023/07/06 09:50:35;;;;;;;4.50;1.45;;;;;;;23.53;42.68;100485.97;6253685;22;20429;-95
2023/07/06 09:53:05;;;;;;;5.75;2.00;;;;;;;22.62;44.15;100493.25;6254565;22;20009;-95
2023/07/06 09:55:31;;;;;;;6.78;1.20;;;;;;;21.12;47.36;100486.06;6253819;22;20416;-94
2023/07/06 09:57:57;;;;;;;6.50;1.80;;;;;;;20.88;48.39;100486.75;6151257;23;20009;-96
2023/07/06 10:00:33;;;;;;;4.70;1.50;;;;;;;21.02;48.75;100491.44;6253451;22;20017;-95
2023/07/06 10:03:23;;;;;;;5.90;1.75;;;;;;;21.20;48.47;100494.00;6253591;22;20007;-93
2023/07/06 10:05:52;;;;;;;5.80;1.50;;;;;;;20.24;49.88;100486.88;6254172;22;20009;-94
2023/07/06 10:08:40;;;;;;;6.90;1.40;;;;;;;20.16;50.52;100499.06;6253898;22;20010;-94
2023/07/06 10:11:34;;;;;;;2.97;1.50;;;;;;;20.82;49.72;100490.78;6241091;22;20059;-93
2023/07/06 10:14:20;;;;;;;5.57;1.20;;;;;;;20.77;50.36;100493.06;6253175;22;20044;-95
2023/07/06 10:17:37;;;;;;;5.35;1.40;;;;;;;20.98;49.35;100494.50;6253581;22;20012;-94
2023/07/06 10:20:40;;;;;;;6.40;1.70;;;;;;;20.97;49.08;100498.94;6187273;23;20016;-95
2023/07/06 10:23:19;;;;;;;6.05;1.40;;;;;;;20.82;48.03;100503.91;6181707;23;20006;-95
2023/07/06 10:26:03;;;;;;;3.65;1.27;;;;;;;20.93;47.29;100500.22;6150899;23;20061;-95
2023/07/06 10:28:53;;;;;;;8.13;1.40;;;;;;;20.59;47.65;100510.63;6151038;22;20425;-95
2023/07/06 10:31:29;;;;;;;3.03;1.47;;;;;;;20.92;49.48;100499.41;6253027;22;20001;-95
2023/07/06 10:34:09;;;;;;;6.45;2.15;;;;;;;21.05;49.71;100498.16;6150491;23;20001;-96
2023/07/06 10:36:35;;;;;;;3.63;1.50;;;;;;;21.22;50.12;100494.66;6253065;22;20006;-94
2023/07/06 10:39:32;;;;;;;6.60;1.55;;;;;;;21.17;48.49;100504.81;6254043;22;20005;-93
2023/07/06 10:42:03;;;;;;;5.38;1.58;;;;;;;21.43;48.46;100510.03;6252870;22;20084;-95
2023/07/06 10:44:43;;;;;;;5.03;1.90;;;;;;;20.65;47.28;100504.75;6253666;22;20018;-95
2023/07/06 10:47:41;;;;;;;7.55;1.73;;;;;;;21.36;45.56;100501.97;6252570;22;20035;-94
2023/07/06 10:50:29;;;;;;;4.53;1.48;;;;;;;21.59;43.63;100507.50;6253049;22;20006;-96
2023/07/06 10:53:00;;;;;;;3.22;1.40;;;;;;;21.19;42.34;100510.72;6253532;22;20032;-95
2023/07/06 10:55:30;;;;;;;3.53;1.48;;;;;;;21.43;41.91;100509.22;6252678;22;20407;-95
2023/07/06 10:58:06;;;;;;;2.40;1.38;;;;;;;21.81;40.50;100518.41;6253352;22;20495;-96
2023/07/06 11:00:37;;;;;;;2.03;1.30;;;;;;;21.34;41.34;100506.53;6151244;22;20044;-94
2023/07/06 11:03:05;;;;;;;1.75;0.80;;;;;;;21.85;41.01;100517.13;6152571;22;20059;-95
2023/07/06 11:05:36;;;;;;;4.10;1.15;;;;;;;22.19;39.51;100514.41;6254888;22;20001;-95
2023/07/06 11:08:11;;;;;;;6.93;1.65;;;;;;;22.95;39.15;100512.47;6255417;22;20006;-96
2023/07/06 11:10:39;;;;;;;5.60;1.38;;;;;;;23.91;39.27;100508.88;6255966;22;20006;-96
2023/07/06 11:13:04;;;;;;;4.28;1.20;;;;;;;24.39;38.31;100515.84;6255877;22;20005;-96
2023/07/06 11:15:38;;;;;;;2.20;1.13;;;;;;;23.44;39.96;100496.56;6255562;22;20006;-95
2023/07/06 11:18:39;;;;;;;3.20;1.08;;;;;;;21.00;44.56;100498.63;6255984;22;20009;-95
2023/07/06 11:21:17;;;;;;;2.47;1.03;;;;;;;21.72;44.46;100491.28;6248609;22;20052;-94
2023/07/06 11:23:53;;;;;;;2.70;0.85;;;;;;;22.06;44.62;100489.56;6151729;23;20010;-94
2023/07/06 11:26:44;;;;;;;5.45;1.50;;;;;;;21.94;44.74;100486.41;6151740;23;20005;-95
2023/07/06 11:29:10;;;;;;;2.88;1.50;;;;;;;21.66;44.53;100489.31;6255193;22;20012;-95
2023/07/06 11:32:01;;;;;;;6.28;2.03;;;;;;;22.31;44.19;100493.06;6151637;22;20336;-93
2023/07/06 11:35:09;;;;;;;4.68;1.77;;;;;;;21.54;43.22;100496.63;6151930;23;20028;-95